createdAt,value
2023-03-12T00:01:26.376Z,12.93
2023-03-12T00:03:57.155Z,12.35
2023-03-12T00:06:26.920Z,13.52
2023-03-12T00:08:56.298Z,12.13
2023-03-12T00:11:26.348Z,11.77
2023-03-12T00:14:05.384Z,13.07
2023-03-12T00:16:32.435Z,12.60
2023-03-12T00:19:06.248Z,12.38
2023-03-12T00:21:35.499Z,12.52
2023-03-12T00:24:02.291Z,11.90
2023-03-12T00:26:28.950Z,12.88
2023-03-12T00:28:56.096Z,11.43
2023-03-12T00:31:29.307Z,13.93
2023-03-12T00:34:04.811Z,13.90
2023-03-12T00:36:33.168Z,12.15
2023-03-12T00:39:01.478Z,11.45
2023-03-12T00:41:30.493Z,11.13
2023-03-12T00:43:57.759Z,11.82
2023-03-12T00:46:30.456Z,11.48
2023-03-12T00:48:57.165Z,11.25
2023-03-12T00:51:24.022Z,10.52
2023-03-12T00:53:50.878Z,11.15
2023-03-12T00:56:17.829Z,9.90
2023-03-12T00:58:49.326Z,10.18
2023-03-12T01:01:16.257Z,9.85
2023-03-12T01:03:43.210Z,10.02
2023-03-12T01:06:09.974Z,7.68
2023-03-12T01:08:46.333Z,9.23
2023-03-12T01:11:21.404Z,9.48
2023-03-12T01:13:49.130Z,11.55
2023-03-12T01:16:15.865Z,9.60
2023-03-12T01:18:45.738Z,9.45
2023-03-12T01:21:18.276Z,9.32
2023-03-12T01:23:56.063Z,8.40
2023-03-12T01:26:23.339Z,8.20
2023-03-12T01:28:50.923Z,7.93
2023-03-12T01:31:20.633Z,9.93
2023-03-12T01:33:56.355Z,9.15
2023-03-12T01:36:33.667Z,8.93
2023-03-12T01:39:03.267Z,9.85
2023-03-12T01:41:33.682Z,7.57
2023-03-12T01:44:05.429Z,8.65
2023-03-12T01:46:46.474Z,7.78
2023-03-12T01:49:33.348Z,8.70
2023-03-12T01:52:38.901Z,7.63
2023-03-12T01:55:16.553Z,7.85
2023-03-12T01:57:57.542Z,8.05
2023-03-12T02:00:27.805Z,6.53
2023-03-12T02:03:03.797Z,7.50
2023-03-12T02:06:03.811Z,7.65
2023-03-12T02:08:30.706Z,6.68
2023-03-12T02:10:57.537Z,8.50
2023-03-12T02:13:27.256Z,7.03
2023-03-12T02:15:57.155Z,8.05
2023-03-12T02:18:25.430Z,10.75
2023-03-12T02:21:27.190Z,9.73
2023-03-12T02:24:25.294Z,8.95
2023-03-12T02:26:52.379Z,9.43
2023-03-12T02:29:19.431Z,8.15
2023-03-12T02:31:59.688Z,6.75
2023-03-12T02:34:27.857Z,9.55
2023-03-12T02:36:57.581Z,6.57
2023-03-12T02:39:27.927Z,7.88
2023-03-12T02:41:58.746Z,6.30
2023-03-12T02:44:41.182Z,7.78
2023-03-12T02:47:07.915Z,8.15
2023-03-12T02:49:35.673Z,8.80
2023-03-12T02:52:04.439Z,8.32
2023-03-12T02:54:37.073Z,6.47
2023-03-12T02:57:04.228Z,5.32
2023-03-12T02:59:34.070Z,6.18
2023-03-12T03:02:02.109Z,7.85
2023-03-12T03:04:36.210Z,5.82
2023-03-12T03:07:03.182Z,6.60
2023-03-12T03:09:29.963Z,6.05
2023-03-12T03:11:56.749Z,6.72
2023-03-12T03:14:23.807Z,7.05
2023-03-12T03:16:50.811Z,6.50
2023-03-12T03:19:18.190Z,7.00
2023-03-12T03:21:53.527Z,6.80
2023-03-12T03:24:20.995Z,9.77
2023-03-12T03:26:47.812Z,7.93
2023-03-12T03:29:14.837Z,7.00
2023-03-12T03:31:53.900Z,7.75
2023-03-12T03:34:20.634Z,10.50
2023-03-12T03:36:47.312Z,13.95
2023-03-12T03:39:14.010Z,6.25
2023-03-12T03:41:44.064Z,5.82
2023-03-12T03:44:12.124Z,11.32
2023-03-12T03:46:42.449Z,11.40
2023-03-12T03:49:13.474Z,8.77
2023-03-12T03:51:44.309Z,6.25
2023-03-12T03:54:14.647Z,8.63
2023-03-12T03:56:48.537Z,6.25
2023-03-12T03:59:15.199Z,11.20
2023-03-12T04:01:47.738Z,7.05
2023-03-12T04:04:20.336Z,6.72
2023-03-12T04:06:47.301Z,6.50
2023-03-12T04:09:18.669Z,8.07
2023-03-12T04:11:53.893Z,6.30
2023-03-12T04:14:20.594Z,7.18
2023-03-12T04:16:47.237Z,6.90
2023-03-12T04:19:20.043Z,6.80
2023-03-12T04:21:49.769Z,6.65
2023-03-12T04:24:18.557Z,8.68
2023-03-12T04:26:45.381Z,8.82
2023-03-12T04:29:12.163Z,6.28
2023-03-12T04:31:38.877Z,7.85
2023-03-12T04:34:05.727Z,9.57
2023-03-12T04:36:32.964Z,6.13
2023-03-12T04:39:02.347Z,6.95
2023-03-12T04:41:29.020Z,6.85
2023-03-12T04:43:59.007Z,8.85
2023-03-12T04:46:28.973Z,9.82
2023-03-12T04:49:02.738Z,10.35
2023-03-12T04:51:30.678Z,11.05
2023-03-12T04:53:59.281Z,9.20
2023-03-12T04:56:26.439Z,9.20
2023-03-12T04:58:53.240Z,9.23
2023-03-12T05:01:33.111Z,7.95
2023-03-12T05:04:01.892Z,9.13
2023-03-12T05:06:32.697Z,7.55
2023-03-12T05:08:59.601Z,10.00
2023-03-12T05:11:26.465Z,10.63
2023-03-12T05:13:53.825Z,7.93
2023-03-12T05:16:20.774Z,8.77
2023-03-12T05:18:49.715Z,7.68
2023-03-12T05:21:27.920Z,9.23
2023-03-12T05:23:55.862Z,8.65
2023-03-12T05:26:29.378Z,9.38
2023-03-12T05:28:56.295Z,9.95
2023-03-12T05:31:26.325Z,9.60
2023-03-12T05:33:54.381Z,12.95
2023-03-12T05:36:21.122Z,10.25
2023-03-12T05:38:51.971Z,8.55
2023-03-12T05:41:36.981Z,7.47
2023-03-12T05:44:03.940Z,8.48
2023-03-12T05:46:30.652Z,7.22
2023-03-12T05:48:57.633Z,7.03
2023-03-12T05:51:31.293Z,12.25
2023-03-12T05:53:59.301Z,9.02
2023-03-12T05:56:26.225Z,12.07
2023-03-12T05:58:56.151Z,12.95
2023-03-12T06:01:31.067Z,13.85
2023-03-12T06:03:57.840Z,13.35
2023-03-12T06:06:26.320Z,19.15
2023-03-12T06:08:55.068Z,12.15
2023-03-12T06:11:22.141Z,16.20
2023-03-12T06:13:49.120Z,18.33
2023-03-12T06:16:25.469Z,17.52
2023-03-12T06:19:00.356Z,17.20
2023-03-12T06:21:32.411Z,19.38
2023-03-12T06:23:59.865Z,20.98
2023-03-12T06:26:28.972Z,22.80
2023-03-12T06:28:58.417Z,18.88
2023-03-12T06:31:28.048Z,19.63
2023-03-12T06:33:54.803Z,29.67
2023-03-12T06:36:23.305Z,24.63
2023-03-12T06:38:50.703Z,27.23
2023-03-12T06:41:20.911Z,27.85
2023-03-12T06:43:48.562Z,30.48
2023-03-12T06:46:25.726Z,30.67
2023-03-12T06:48:52.492Z,32.25
2023-03-12T06:51:19.187Z,24.35
2023-03-12T06:53:46.992Z,27.00
2023-03-12T06:56:14.836Z,26.67
2023-03-12T06:58:45.619Z,22.27
2023-03-12T07:01:14.986Z,24.70
2023-03-12T07:03:51.783Z,25.40
2023-03-12T07:06:23.030Z,24.13
2023-03-12T07:08:50.822Z,24.27
2023-03-12T07:11:21.813Z,30.23
2023-03-12T07:13:48.565Z,23.67
2023-03-12T07:16:15.414Z,20.77
2023-03-12T07:18:42.521Z,25.83
2023-03-12T07:21:10.551Z,23.05
2023-03-12T07:23:37.209Z,19.25
2023-03-12T07:26:06.383Z,18.25
2023-03-12T07:28:41.680Z,19.80
2023-03-12T07:31:09.874Z,24.90
2023-03-12T07:33:36.886Z,25.67
2023-03-12T07:36:07.865Z,18.55
2023-03-12T07:38:51.322Z,22.25
2023-03-12T07:41:18.221Z,20.30
2023-03-12T07:43:52.814Z,24.25
2023-03-12T07:46:26.126Z,21.88
2023-03-12T07:48:58.441Z,23.23
2023-03-12T07:54:30.707Z,20.35
2023-03-12T09:18:15.437Z,31.25
2023-03-12T09:31:41.714Z,27.52
2023-03-12T10:32:47.148Z,20.58
2023-03-12T10:50:37.589Z,24.38
2023-03-12T11:16:32.071Z,23.38
2023-03-12T11:19:06.393Z,29.15
2023-03-12T11:21:38.343Z,23.23
2023-03-12T11:24:16.149Z,26.73
2023-03-12T11:37:15.272Z,27.17
2023-03-12T12:35:57.081Z,9.90
2023-03-12T13:03:31.828Z,5.13
2023-03-12T13:08:46.594Z,5.10
2023-03-12T13:11:20.079Z,5.60
2023-03-12T13:14:20.848Z,7.88
2023-03-12T13:16:48.940Z,6.80
2023-03-12T13:19:18.788Z,6.68
2023-03-12T13:46:47.324Z,8.35
2023-03-12T14:29:08.302Z,6.93
2023-03-12T14:31:38.628Z,7.88
2023-03-12T16:05:51.011Z,7.97
2023-03-12T16:08:47.018Z,9.93
2023-03-12T16:33:45.052Z,11.02
2023-03-12T16:36:19.184Z,10.45
2023-03-12T16:38:52.286Z,12.00
2023-03-12T16:41:20.070Z,12.20
2023-03-12T16:43:53.796Z,11.23
2023-03-12T16:46:23.229Z,12.80
2023-03-12T16:57:04.739Z,15.80
2023-03-12T17:02:29.844Z,16.65
2023-03-12T17:04:56.735Z,16.30
2023-03-12T17:07:26.020Z,11.82
2023-03-12T17:09:54.037Z,16.63
2023-03-12T17:12:38.699Z,23.38
2023-03-12T17:17:55.778Z,15.55
2023-03-12T17:20:24.904Z,19.02
2023-03-12T17:22:52.585Z,21.23
2023-03-12T17:25:31.420Z,30.63
2023-03-12T17:27:59.044Z,22.02
2023-03-12T17:30:30.861Z,22.13
2023-03-12T17:33:14.645Z,19.15
2023-03-12T17:35:45.402Z,20.42
2023-03-12T17:38:13.231Z,19.17
2023-03-12T17:40:55.175Z,18.30
2023-03-12T17:43:21.970Z,19.90
2023-03-12T17:45:49.571Z,19.52
2023-03-12T17:48:31.524Z,19.88
2023-03-12T17:50:58.765Z,19.30
2023-03-12T17:53:25.578Z,19.90
2023-03-12T17:55:54.612Z,21.50
2023-03-12T17:58:22.256Z,17.70
2023-03-12T18:00:51.848Z,18.98
2023-03-12T18:03:18.745Z,19.38
2023-03-12T18:05:49.711Z,19.08
2023-03-12T18:08:16.641Z,20.27
2023-03-12T18:10:43.606Z,20.95
2023-03-12T18:13:11.361Z,21.58
2023-03-12T18:15:42.469Z,17.20
2023-03-12T18:18:09.249Z,20.98
2023-03-12T18:20:39.668Z,21.40
2023-03-12T18:23:07.139Z,20.65
2023-03-12T18:25:38.413Z,19.48
2023-03-12T18:28:08.307Z,19.50
2023-03-12T18:30:35.729Z,19.63
2023-03-12T18:33:02.537Z,18.90
2023-03-12T18:35:32.224Z,17.48
2023-03-12T18:38:00.006Z,16.20
2023-03-12T18:40:28.948Z,16.17
2023-03-12T18:43:02.907Z,18.27
2023-03-12T19:01:52.000Z,17.65
2023-03-12T19:31:25.435Z,26.77
2023-03-12T19:33:52.297Z,24.40
2023-03-12T20:08:51.051Z,39.88
2023-03-12T20:11:18.023Z,35.20
2023-03-12T20:24:35.812Z,43.28
2023-03-12T20:56:56.749Z,56.58
2023-03-12T22:18:47.629Z,60.17
2023-03-12T22:21:20.276Z,58.00
2023-03-12T22:23:50.924Z,57.30
2023-03-12T22:26:19.057Z,58.67
2023-03-12T22:28:57.420Z,56.92
2023-03-12T22:53:37.761Z,55.87
2023-03-12T22:58:58.611Z,52.15
2023-03-12T23:01:26.120Z,51.40
2023-03-12T23:03:56.277Z,55.35
2023-03-12T23:06:30.150Z,51.40
2023-03-12T23:08:58.035Z,44.88
2023-03-12T23:11:32.457Z,54.20
2023-03-12T23:13:59.727Z,40.30
2023-03-12T23:16:27.337Z,54.78
2023-03-12T23:18:56.498Z,40.25
2023-03-12T23:21:25.372Z,38.90
2023-03-12T23:23:53.392Z,45.53
2023-03-12T23:26:27.446Z,41.25
2023-03-12T23:28:58.167Z,46.35
2023-03-12T23:53:07.169Z,46.00
2023-03-12T23:55:36.957Z,40.03
2023-03-12T23:58:03.728Z,37.88
